Time;durP1;ratioP1;P1;durP2;ratioP2;P2;SDS_P1;SDS_P2;PMS_P1;PMS_P2;Temp;Humidity;BMP_temperature;BMP_pressure;BME280_temperature;BME280_humidity;BME280_pressure;Samples;Min_cycle;Max_cycle;Signal;HPM_P1;HPM_P2
2023/06/29 00:01:07;;;;;;;29.27;16.45;;;;;;;19.99;100.00;101500.81;5075448;28;20020;-76
2023/06/29 00:03:33;;;;;;;26.48;14.98;;;;;;;19.88;100.00;101496.09;5070259;28;20081;-76
2023/06/29 00:05:59;;;;;;;29.65;15.18;;;;;;;19.84;100.00;101491.69;5074775;28;20476;-76
2023/06/29 00:08:25;;;;;;;25.63;16.60;;;;;;;20.01;100.00;101487.78;5075952;28;20028;-75
2023/06/29 00:10:52;;;;;;;33.83;20.38;;;;;;;19.84;100.00;101494.53;5083393;28;20496;-75
2023/06/29 00:13:19;;;;;;;28.95;16.35;;;;;;;19.88;100.00;101496.09;5061252;28;20565;-76
2023/06/29 00:15:44;;;;;;;36.88;19.13;;;;;;;19.87;100.00;101491.63;5057400;28;20078;-76
2023/06/29 00:18:10;;;;;;;31.45;16.58;;;;;;;19.94;100.00;101492.75;5072420;28;20035;-76
2023/06/29 00:20:35;;;;;;;33.17;17.50;;;;;;;19.97;100.00;101491.91;5074469;28;20020;-76
2023/06/29 00:23:04;;;;;;;28.70;16.17;;;;;;;19.92;100.00;101495.22;5075304;28;20851;-76
2023/06/29 00:25:29;;;;;;;22.73;13.90;;;;;;;19.83;100.00;101490.06;5076441;28;20104;-76
2023/06/29 00:27:54;;;;;;;26.80;15.23;;;;;;;19.89;100.00;101492.00;5076874;28;20040;-75
2023/06/29 00:30:20;;;;;;;27.42;14.30;;;;;;;20.06;100.00;101492.97;5070927;28;20023;-76
2023/06/29 00:32:46;;;;;;;28.92;15.93;;;;;;;19.95;100.00;101483.81;5081490;28;20028;-76
2023/06/29 00:35:12;;;;;;;27.30;16.00;;;;;;;19.87;100.00;101488.78;5076791;28;20036;-76
2023/06/29 00:37:39;;;;;;;25.48;15.60;;;;;;;19.99;100.00;101489.47;5076726;28;20088;-76
2023/06/29 00:40:05;;;;;;;39.92;16.20;;;;;;;19.81;100.00;101473.44;5081425;28;20060;-76
2023/06/29 00:42:31;;;;;;;25.40;15.32;;;;;;;19.92;100.00;101478.97;5065333;28;20016;-76
2023/06/29 00:44:56;;;;;;;23.27;15.25;;;;;;;19.91;100.00;101471.69;5072626;28;20042;-75
2023/06/29 00:47:22;;;;;;;28.58;15.55;;;;;;;19.90;100.00;101468.06;5077752;28;20465;-76
2023/06/29 00:49:47;;;;;;;35.80;19.33;;;;;;;19.89;100.00;101477.81;5070533;28;20087;-76
2023/06/29 00:52:13;;;;;;;27.05;15.70;;;;;;;20.00;100.00;101474.00;5082910;28;20032;-76
2023/06/29 00:54:39;;;;;;;24.30;14.68;;;;;;;19.98;100.00;101474.41;5066373;28;20039;-75
2023/06/29 00:57:04;;;;;;;22.17;12.93;;;;;;;20.08;100.00;101470.63;5054870;28;20549;-75
2023/06/29 00:59:30;;;;;;;27.50;14.20;;;;;;;20.09;100.00;101465.72;5073160;28;20032;-76
2023/06/29 01:01:55;;;;;;;28.08;14.45;;;;;;;20.13;100.00;101460.00;5066232;28;20094;-76
2023/06/29 01:04:25;;;;;;;21.90;12.88;;;;;;;20.09;100.00;101452.34;5076545;28;20411;-76
2023/06/29 01:07:17;;;;;;;24.23;12.93;;;;;;;20.15;100.00;101452.63;5066158;28;20066;-75
2023/06/29 01:09:44;;;;;;;26.92;14.82;;;;;;;20.07;100.00;101457.66;5067095;28;20040;-76
2023/06/29 01:12:13;;;;;;;24.55;14.10;;;;;;;19.99;100.00;101444.78;5075831;28;20123;-75
2023/06/29 01:14:39;;;;;;;33.13;19.30;;;;;;;19.95;100.00;101443.25;5050528;28;20083;-76
2023/06/29 01:17:07;;;;;;;24.92;15.35;;;;;;;19.88;100.00;101453.47;5062689;28;20573;-76
2023/06/29 01:19:34;;;;;;;33.05;19.55;;;;;;;19.86;100.00;101449.47;5061328;28;20713;-76
2023/06/29 01:22:09;;;;;;;29.65;16.58;;;;;;;19.91;100.00;101443.28;5083034;28;20076;-75
2023/06/29 01:24:45;;;;;;;27.08;15.85;;;;;;;19.88;100.00;101452.66;5093659;28;20019;-75
2023/06/29 01:27:13;;;;;;;25.25;14.50;;;;;;;19.93;100.00;101446.50;5088154;28;20047;-76
2023/06/29 01:29:39;;;;;;;24.25;14.32;;;;;;;19.97;100.00;101450.09;5084125;28;20087;-76
2023/06/29 01:32:07;;;;;;;26.17;14.02;;;;;;;20.03;100.00;101442.69;5092339;28;20031;-76
2023/06/29 01:34:34;;;;;;;32.42;16.65;;;;;;;19.98;100.00;101448.84;5089541;28;20039;-75
2023/06/29 01:37:08;;;;;;;31.73;18.10;;;;;;;19.88;100.00;101449.81;5090247;28;20119;-75
2023/06/29 01:39:44;;;;;;;37.50;16.70;;;;;;;19.84;100.00;101443.41;5088270;28;20477;-75
2023/06/29 01:42:11;;;;;;;35.95;18.58;;;;;;;19.72;100.00;101441.94;5087868;28;20452;-75
2023/06/29 01:44:37;;;;;;;29.73;15.52;;;;;;;19.75;100.00;101434.59;5087741;28;20031;-75
2023/06/29 01:47:05;;;;;;;25.83;15.48;;;;;;;19.76;100.00;101433.38;5078705;28;20045;-76
2023/06/29 01:49:30;;;;;;;31.05;16.70;;;;;;;19.84;100.00;101432.84;5088812;28;20377;-76
2023/06/29 01:51:56;;;;;;;25.83;15.48;;;;;;;19.80;100.00;101436.97;5071254;28;20027;-75
2023/06/29 01:54:21;;;;;;;26.05;16.05;;;;;;;19.72;100.00;101438.31;5086920;28;20445;-76
2023/06/29 01:56:47;;;;;;;31.10;16.63;;;;;;;19.78;100.00;101439.44;5099972;28;20119;-75
2023/06/29 01:59:12;;;;;;;26.85;15.05;;;;;;;19.73;100.00;101431.38;5071636;28;20028;-76
2023/06/29 02:01:37;;;;;;;29.15;17.65;;;;;;;19.73;100.00;101432.19;5090405;28;20181;-75
2023/06/29 02:04:03;;;;;;;28.67;15.60;;;;;;;19.58;100.00;101427.91;5089510;28;20020;-75
2023/06/29 02:06:29;;;;;;;25.50;14.18;;;;;;;19.62;100.00;101420.94;5082456;28;20510;-76
2023/06/29 02:08:54;;;;;;;22.58;13.10;;;;;;;19.60;100.00;101426.25;5094118;28;20031;-75
2023/06/29 02:11:20;;;;;;;30.38;17.10;;;;;;;19.64;100.00;101429.84;5093304;28;20055;-76
2023/06/29 02:13:46;;;;;;;27.08;14.68;;;;;;;19.68;100.00;101424.13;5094629;28;20031;-76
2023/06/29 02:16:11;;;;;;;25.65;14.00;;;;;;;19.73;100.00;101434.22;5093762;28;20082;-75
2023/06/29 02:18:36;;;;;;;22.85;13.25;;;;;;;19.74;100.00;101421.66;5091052;28;20055;-76
2023/06/29 02:21:02;;;;;;;21.98;12.20;;;;;;;19.79;100.00;101424.00;5091799;28;20031;-75
2023/06/29 02:23:28;;;;;;;23.20;12.82;;;;;;;19.78;100.00;101425.25;5068211;28;20072;-76
2023/06/29 02:25:53;;;;;;;20.10;13.18;;;;;;;19.74;100.00;101416.75;5087627;28;20028;-76
2023/06/29 02:28:19;;;;;;;25.35;13.90;;;;;;;19.81;100.00;101421.53;5099235;28;20516;-76
2023/06/29 02:30:44;;;;;;;20.45;12.30;;;;;;;19.75;100.00;101417.56;5077053;28;20035;-76
2023/06/29 02:33:09;;;;;;;25.35;13.93;;;;;;;19.75;100.00;101412.66;5093601;28;20411;-76
2023/06/29 02:35:35;;;;;;;21.67;12.38;;;;;;;19.74;100.00;101410.28;5094776;28;20066;-76
2023/06/29 02:38:00;;;;;;;23.63;12.23;;;;;;;19.75;100.00;101406.19;5096385;28;20035;-75
2023/06/29 02:40:26;;;;;;;25.08;14.02;;;;;;;19.68;100.00;101402.19;5094369;28;20035;-76
2023/06/29 02:42:51;;;;;;;27.83;13.90;;;;;;;19.60;100.00;101399.91;5077412;28;20032;-75
2023/06/29 02:45:16;;;;;;;27.20;14.00;;;;;;;19.53;100.00;101397.97;5085915;28;20280;-76
2023/06/29 02:47:42;;;;;;;25.52;15.27;;;;;;;19.44;100.00;101389.19;5089014;28;20043;-75
2023/06/29 02:50:08;;;;;;;27.45;15.13;;;;;;;19.45;100.00;101387.94;5090214;28;20468;-75
2023/06/29 02:52:33;;;;;;;21.23;13.50;;;;;;;19.58;100.00;101394.63;5094831;28;20057;-76
2023/06/29 02:54:59;;;;;;;26.83;14.88;;;;;;;19.54;100.00;101391.03;5072104;28;20039;-76
2023/06/29 02:57:24;;;;;;;26.13;13.80;;;;;;;19.51;100.00;101391.91;5094863;28;20106;-75
2023/06/29 02:59:49;;;;;;;22.52;13.95;;;;;;;19.45;100.00;101385.09;5087668;28;20506;-75
2023/06/29 03:02:15;;;;;;;28.40;16.33;;;;;;;19.27;100.00;101385.38;5071558;28;20036;-76
2023/06/29 03:04:40;;;;;;;17.33;11.68;;;;;;;19.34;100.00;101393.78;5089592;28;20019;-75
2023/06/29 03:07:06;;;;;;;29.27;14.80;;;;;;;19.45;100.00;101397.25;5095169;28;20059;-76
2023/06/29 03:09:31;;;;;;;21.00;14.00;;;;;;;19.50;100.00;101395.97;5083110;28;20097;-76
2023/06/29 03:11:56;;;;;;;28.05;13.27;;;;;;;19.47;100.00;101394.00;5099227;28;20063;-75
2023/06/29 03:14:22;;;;;;;22.00;12.45;;;;;;;19.51;100.00;101386.22;5089996;28;20471;-75
2023/06/29 03:16:47;;;;;;;24.15;12.48;;;;;;;19.53;100.00;101395.13;5084418;28;20118;-75
2023/06/29 03:19:13;;;;;;;24.92;14.02;;;;;;;19.48;100.00;101393.56;5099441;28;20031;-76
2023/06/29 03:21:38;;;;;;;23.83;12.00;;;;;;;19.52;100.00;101379.31;5095002;28;20121;-75
2023/06/29 03:24:04;;;;;;;22.40;11.95;;;;;;;19.63;100.00;101388.50;5094865;28;20575;-75
2023/06/29 03:26:29;;;;;;;25.88;12.77;;;;;;;19.44;100.00;101384.31;5097851;28;20059;-75
2023/06/29 03:28:54;;;;;;;20.80;13.43;;;;;;;19.48;100.00;101375.75;5102080;28;20047;-75
2023/06/29 03:31:20;;;;;;;20.60;13.10;;;;;;;19.52;100.00;101375.69;5072915;28;20028;-76
2023/06/29 03:33:45;;;;;;;23.55;14.20;;;;;;;19.48;100.00;101370.06;5089015;28;20463;-75
2023/06/29 03:36:15;;;;;;;28.65;14.88;;;;;;;19.39;100.00;101373.41;5099116;28;20039;-76
2023/06/29 03:38:40;;;;;;;23.73;14.18;;;;;;;19.37;100.00;101369.41;5103818;28;20134;-75
2023/06/29 03:41:06;;;;;;;26.35;13.98;;;;;;;19.43;100.00;101379.06;5088213;28;20034;-76
2023/06/29 03:43:31;;;;;;;19.83;11.60;;;;;;;19.30;100.00;101371.09;5092918;28;20020;-75
2023/06/29 03:45:58;;;;;;;23.85;11.88;;;;;;;19.41;100.00;101368.13;5079042;28;20024;-76
2023/06/29 03:48:27;;;;;;;22.23;12.88;;;;;;;19.43;100.00;101365.66;5094061;28;20455;-75
2023/06/29 03:50:57;;;;;;;22.45;12.45;;;;;;;19.43;100.00;101368.50;5080962;28;20127;-75
2023/06/29 03:53:22;;;;;;;26.25;14.75;;;;;;;19.41;100.00;101376.63;5090949;28;20035;-75
2023/06/29 03:55:48;;;;;;;30.15;15.88;;;;;;;19.45;100.00;101376.59;5094474;28;20254;-76
2023/06/29 03:58:14;;;;;;;25.52;13.77;;;;;;;19.42;100.00;101364.06;5095030;28;20532;-75
2023/06/29 04:00:40;;;;;;;31.08;16.98;;;;;;;19.25;100.00;101363.09;5090571;28;20088;-75
2023/06/29 04:03:05;;;;;;;26.48;15.10;;;;;;;19.23;100.00;101362.69;5094373;28;20023;-76
2023/06/29 04:05:31;;;;;;;33.08;17.63;;;;;;;19.20;100.00;101363.53;5097454;28;20036;-75
2023/06/29 04:07:57;;;;;;;29.30;16.13;;;;;;;19.39;100.00;101369.78;5094950;28;20035;-75
2023/06/29 04:10:23;;;;;;;33.55;18.27;;;;;;;19.43;100.00;101362.00;5085951;28;20397;-75
2023/06/29 04:12:48;;;;;;;32.85;17.50;;;;;;;19.41;100.00;101365.28;5088915;28;20016;-75
2023/06/29 04:15:13;;;;;;;31.35;18.73;;;;;;;19.37;100.00;101361.69;5072604;28;20066;-75
2023/06/29 04:17:39;;;;;;;33.20;18.85;;;;;;;19.40;100.00;101357.22;5081606;28;20470;-76
2023/06/29 04:20:05;;;;;;;35.13;17.60;;;;;;;19.33;100.00;101358.09;5080400;28;20498;-76
2023/06/29 04:22:30;;;;;;;44.50;22.05;;;;;;;19.32;100.00;101355.69;5093050;28;20513;-76
2023/06/29 04:24:56;;;;;;;28.83;17.77;;;;;;;19.23;100.00;101357.03;5094926;28;20032;-76
2023/06/29 04:27:21;;;;;;;29.27;18.27;;;;;;;19.24;100.00;101350.09;5087274;28;20027;-75
2023/06/29 04:29:47;;;;;;;31.23;17.20;;;;;;;19.28;100.00;101350.84;5095584;28;20035;-76
2023/06/29 04:32:12;;;;;;;31.17;18.08;;;;;;;19.39;100.00;101352.75;5089742;28;20153;-76
2023/06/29 04:34:37;;;;;;;39.47;18.10;;;;;;;19.40;100.00;101348.69;5088258;28;20028;-76
2023/06/29 04:37:04;;;;;;;29.35;17.10;;;;;;;19.42;100.00;101354.75;5092783;28;20411;-75
2023/06/29 04:39:29;;;;;;;37.97;18.55;;;;;;;19.44;100.00;101360.78;5093672;28;20046;-76
2023/06/29 04:42:00;;;;;;;33.30;18.52;;;;;;;19.44;100.00;101352.28;5093652;28;20081;-75
2023/06/29 04:44:31;;;;;;;28.27;16.02;;;;;;;19.47;100.00;101352.22;5088260;28;20648;-75
2023/06/29 04:46:59;;;;;;;29.75;16.45;;;;;;;19.44;100.00;101347.41;5088297;28;20554;-75
2023/06/29 04:49:27;;;;;;;32.38;17.33;;;;;;;19.45;100.00;101348.19;5089313;28;20027;-75
2023/06/29 04:51:55;;;;;;;37.20;18.33;;;;;;;19.50;100.00;101339.19;5093388;28;20028;-75
2023/06/29 04:54:21;;;;;;;34.25;19.67;;;;;;;19.43;100.00;101337.25;5088998;28;20074;-76
2023/06/29 04:56:47;;;;;;;35.65;18.98;;;;;;;19.41;100.00;101347.44;5093336;28;20027;-76
2023/06/29 04:59:12;;;;;;;34.38;18.05;;;;;;;19.42;100.00;101343.38;5098724;28;20387;-75
2023/06/29 05:01:37;;;;;;;32.00;17.35;;;;;;;19.44;100.00;101346.59;5084625;28;20032;-75
2023/06/29 05:04:03;;;;;;;38.67;19.33;;;;;;;19.38;100.00;101354.00;5087961;28;20089;-75
2023/06/29 05:06:29;;;;;;;33.42;18.95;;;;;;;19.29;100.00;101351.69;5074363;28;20499;-75
2023/06/29 05:08:54;;;;;;;33.92;18.85;;;;;;;19.25;100.00;101339.59;5098156;28;20063;-75
2023/06/29 05:11:19;;;;;;;38.50;20.50;;;;;;;19.28;100.00;101339.50;5092748;28;20071;-76
2023/06/29 05:13:45;;;;;;;35.80;19.58;;;;;;;19.16;100.00;101345.75;5087976;28;20040;-76
2023/06/29 05:16:10;;;;;;;34.97;18.35;;;;;;;19.22;100.00;101340.41;5092086;28;20889;-76
2023/06/29 05:18:37;;;;;;;37.10;19.30;;;;;;;19.30;100.00;101330.56;5085357;28;20023;-76
2023/06/29 05:21:03;;;;;;;35.47;17.58;;;;;;;19.28;100.00;101333.84;5090137;28;20525;-76
2023/06/29 05:23:29;;;;;;;39.67;18.90;;;;;;;19.21;100.00;101331.09;5093952;28;20054;-76
2023/06/29 05:25:54;;;;;;;36.90;20.65;;;;;;;19.22;100.00;101324.19;5074807;28;20384;-77
2023/06/29 05:28:20;;;;;;;36.58;19.23;;;;;;;19.34;100.00;101330.53;5091635;28;20036;-77
2023/06/29 05:30:45;;;;;;;36.35;19.60;;;;;;;19.23;100.00;101314.47;5089584;28;20516;-77
2023/06/29 05:33:10;;;;;;;37.20;19.05;;;;;;;19.35;100.00;101317.94;5071147;28;20035;-77
2023/06/29 05:35:36;;;;;;;22.23;14.35;;;;;;;19.43;100.00;101322.28;5086001;28;20039;-76
2023/06/29 05:38:01;;;;;;;27.15;15.00;;;;;;;19.61;100.00;101322.81;5074013;28;20111;-76
2023/06/29 05:40:27;;;;;;;34.90;17.45;;;;;;;19.78;100.00;101325.81;5075169;28;20040;-77
2023/06/29 05:42:52;;;;;;;30.63;15.63;;;;;;;19.90;100.00;101322.34;5076159;28;20664;-76
2023/06/29 05:45:18;;;;;;;26.05;14.85;;;;;;;20.39;100.00;101321.91;5094115;28;20027;-75
2023/06/29 05:47:43;;;;;;;28.90;14.10;;;;;;;20.28;100.00;101319.22;5090098;28;20087;-75
2023/06/29 05:50:09;;;;;;;28.92;14.63;;;;;;;20.46;100.00;101314.00;5095207;28;20978;-75
2023/06/29 05:52:34;;;;;;;33.25;17.38;;;;;;;20.17;100.00;101325.13;5090198;28;20020;-76
2023/06/29 05:55:01;;;;;;;35.08;20.00;;;;;;;19.77;100.00;101315.69;5095845;28;20028;-76
2023/06/29 05:57:27;;;;;;;28.30;15.93;;;;;;;19.92;100.00;101302.81;5074420;28;20023;-76
2023/06/29 05:59:52;;;;;;;34.42;19.25;;;;;;;20.43;100.00;101309.22;5085930;28;20372;-76
2023/06/29 06:02:17;;;;;;;33.60;16.73;;;;;;;20.30;100.00;101316.75;5071175;28;20077;-76
2023/06/29 06:04:43;;;;;;;30.95;16.17;;;;;;;20.36;100.00;101311.38;5080195;28;20481;-76
2023/06/29 06:07:09;;;;;;;29.73;16.85;;;;;;;20.59;100.00;101311.34;5073566;28;20084;-76
2023/06/29 06:09:35;;;;;;;30.50;17.10;;;;;;;20.64;100.00;101310.84;5087744;28;20161;-76
2023/06/29 06:12:00;;;;;;;38.40;20.35;;;;;;;20.70;100.00;101299.75;5085280;28;20103;-76
2023/06/29 06:14:25;;;;;;;28.30;17.02;;;;;;;20.41;100.00;101300.31;5090669;28;20367;-73
2023/06/29 06:16:51;;;;;;;30.48;17.35;;;;;;;20.44;100.00;101305.13;5091193;28;20024;-73
2023/06/29 06:19:16;;;;;;;36.83;18.70;;;;;;;20.34;100.00;101306.13;5085169;28;20081;-74
2023/06/29 06:21:42;;;;;;;42.65;20.08;;;;;;;20.43;100.00;101309.22;5088955;28;20039;-74
2023/06/29 06:24:07;;;;;;;25.33;14.13;;;;;;;20.26;100.00;101310.34;5094985;28;20027;-74
2023/06/29 06:26:32;;;;;;;31.20;16.15;;;;;;;20.33;100.00;101310.22;5090259;28;20081;-74
2023/06/29 06:28:58;;;;;;;36.00;17.08;;;;;;;20.42;100.00;101307.59;5078260;28;20031;-73
2023/06/29 06:31:25;;;;;;;36.03;18.65;;;;;;;20.97;100.00;101305.28;5093324;28;20027;-74
2023/06/29 06:33:55;;;;;;;32.83;16.50;;;;;;;21.19;100.00;101302.75;5097368;28;20038;-74
2023/06/29 06:36:22;;;;;;;30.48;17.25;;;;;;;21.34;100.00;101305.28;5093457;28;20486;-74
2023/06/29 06:38:48;;;;;;;31.77;18.63;;;;;;;21.31;100.00;101309.78;5095408;28;20031;-73
2023/06/29 06:41:13;;;;;;;32.05;17.75;;;;;;;21.26;100.00;101305.44;5095250;28;20373;-74
2023/06/29 06:43:39;;;;;;;31.05;16.52;;;;;;;21.26;100.00;101294.03;5076978;28;20086;-73
2023/06/29 06:46:04;;;;;;;33.25;17.42;;;;;;;21.42;100.00;101301.84;5096516;28;20050;-74
2023/06/29 06:48:29;;;;;;;32.35;17.75;;;;;;;21.47;100.00;101301.31;5096600;28;20120;-73
2023/06/29 06:50:55;;;;;;;31.00;17.15;;;;;;;21.38;100.00;101303.13;5102313;28;20023;-74
2023/06/29 06:53:20;;;;;;;34.45;17.52;;;;;;;21.43;100.00;101305.50;5096099;28;20020;-75
2023/06/29 06:55:45;;;;;;;36.42;18.90;;;;;;;21.43;100.00;101294.09;5093501;28;20036;-74
2023/06/29 06:58:11;;;;;;;31.52;17.20;;;;;;;21.24;100.00;101299.38;5097915;28;20024;-74
2023/06/29 07:00:38;;;;;;;35.03;18.70;;;;;;;21.60;100.00;101297.75;5101062;28;20027;-74
2023/06/29 07:03:03;;;;;;;41.53;21.48;;;;;;;21.09;100.00;101304.59;5102497;28;20061;-74
2023/06/29 07:05:29;;;;;;;34.08;18.90;;;;;;;21.06;100.00;101293.28;5096261;28;20024;-74
2023/06/29 07:07:55;;;;;;;38.85;19.45;;;;;;;21.43;100.00;101285.56;5109432;28;20031;-74
2023/06/29 07:10:20;;;;;;;34.78;19.27;;;;;;;21.71;100.00;101287.72;5097287;28;20035;-74
2023/06/29 07:12:46;;;;;;;36.92;20.35;;;;;;;22.00;100.00;101283.31;5098350;28;20479;-74
2023/06/29 07:15:12;;;;;;;38.50;20.50;;;;;;;22.09;100.00;101277.75;5096694;28;20165;-74
2023/06/29 07:17:37;;;;;;;41.03;21.25;;;;;;;22.08;100.00;101294.06;5099495;28;20618;-74
2023/06/29 07:20:06;;;;;;;37.45;19.73;;;;;;;22.10;100.00;101293.63;5096700;28;20622;-74
2023/06/29 07:22:32;;;;;;;37.47;20.45;;;;;;;22.04;100.00;101296.22;5104982;28;20035;-74
2023/06/29 07:24:58;;;;;;;33.67;19.13;;;;;;;21.86;100.00;101293.84;5102421;28;20055;-74
2023/06/29 07:27:24;;;;;;;36.72;19.35;;;;;;;22.07;100.00;101292.47;5097894;28;20035;-74
2023/06/29 07:29:49;;;;;;;43.58;19.80;;;;;;;21.87;100.00;101300.34;5100663;28;20214;-74
2023/06/29 07:32:15;;;;;;;38.25;20.02;;;;;;;21.91;100.00;101286.81;5101230;28;20019;-74
2023/06/29 07:34:40;;;;;;;36.95;20.17;;;;;;;21.92;100.00;101285.53;5095173;28;20028;-74
2023/06/29 07:37:05;;;;;;;39.47;19.55;;;;;;;22.05;100.00;101288.47;5075732;28;20034;-75
2023/06/29 07:39:33;;;;;;;40.53;22.88;;;;;;;21.10;100.00;101283.44;5095457;28;20073;-74
2023/06/29 07:41:58;;;;;;;38.47;20.92;;;;;;;20.88;100.00;101283.09;5101263;28;20382;-73
2023/06/29 07:44:23;;;;;;;38.67;19.58;;;;;;;21.00;100.00;101275.16;5095582;28;20022;-74
2023/06/29 07:46:49;;;;;;;41.20;20.65;;;;;;;21.24;100.00;101273.75;5094889;28;20035;-74
2023/06/29 07:49:15;;;;;;;37.50;19.52;;;;;;;20.96;100.00;101274.44;5095633;28;20024;-73
2023/06/29 07:51:41;;;;;;;36.22;20.80;;;;;;;20.96;100.00;101272.38;5097105;28;20031;-74
2023/06/29 07:54:08;;;;;;;35.95;19.17;;;;;;;20.79;100.00;101267.88;5085194;28;20499;-74
2023/06/29 07:56:33;;;;;;;32.67;17.30;;;;;;;20.91;100.00;101276.56;5080977;28;20040;-74
2023/06/29 07:58:59;;;;;;;32.08;18.13;;;;;;;20.84;100.00;101276.69;5094245;28;20552;-74
2023/06/29 08:01:24;;;;;;;37.70;18.02;;;;;;;20.82;100.00;101273.47;5092750;28;20053;-74
2023/06/29 08:03:50;;;;;;;34.42;16.92;;;;;;;20.80;100.00;101273.13;5085439;28;20027;-73
2023/06/29 08:06:15;;;;;;;35.75;17.50;;;;;;;20.85;100.00;101281.16;5093933;28;20016;-74
2023/06/29 08:08:41;;;;;;;35.42;17.58;;;;;;;20.61;100.00;101274.75;5093343;28;20052;-74
2023/06/29 08:11:06;;;;;;;28.33;15.20;;;;;;;20.64;100.00;101273.06;5093084;28;20063;-74
2023/06/29 08:13:32;;;;;;;35.80;17.88;;;;;;;20.74;100.00;101277.72;5095687;28;20059;-74
2023/06/29 08:15:58;;;;;;;35.70;18.25;;;;;;;20.59;100.00;101277.22;5097787;28;20083;-74
2023/06/29 08:18:23;;;;;;;32.25;16.23;;;;;;;20.57;100.00;101273.19;5093287;28;20078;-74
2023/06/29 08:20:49;;;;;;;32.95;17.55;;;;;;;20.71;100.00;101270.88;5094129;28;20172;-74
2023/06/29 08:23:14;;;;;;;35.47;16.10;;;;;;;20.61;100.00;101273.94;5098241;28;20072;-74
2023/06/29 08:25:40;;;;;;;33.15;17.67;;;;;;;20.84;100.00;101261.66;5096239;28;20026;-74
2023/06/29 08:28:06;;;;;;;32.72;17.27;;;;;;;20.82;100.00;101262.09;5095825;28;20118;-74
2023/06/29 08:30:32;;;;;;;32.42;17.30;;;;;;;20.89;100.00;101261.13;5092801;28;20048;-74
2023/06/29 08:32:57;;;;;;;36.28;17.45;;;;;;;21.10;100.00;101259.84;5092016;28;20028;-74
2023/06/29 08:35:23;;;;;;;35.75;16.83;;;;;;;21.26;100.00;101256.25;5095622;28;20386;-73
2023/06/29 08:37:48;;;;;;;35.47;17.50;;;;;;;20.73;100.00;101253.38;5095263;28;20514;-75
2023/06/29 08:40:17;;;;;;;35.45;17.70;;;;;;;20.69;100.00;101252.66;5090984;28;20035;-74
2023/06/29 08:42:43;;;;;;;29.77;17.70;;;;;;;21.02;100.00;101258.41;5091559;28;20028;-74
2023/06/29 08:45:09;;;;;;;37.17;18.88;;;;;;;21.07;100.00;101255.84;5093465;28;20080;-74
2023/06/29 08:47:37;;;;;;;34.25;17.50;;;;;;;20.94;100.00;101257.00;5100329;28;20453;-73
2023/06/29 08:50:04;;;;;;;32.63;19.20;;;;;;;20.64;100.00;101256.00;5095231;28;20019;-74
2023/06/29 08:52:33;;;;;;;37.53;17.45;;;;;;;20.73;100.00;101247.69;5097066;28;20439;-74
2023/06/29 08:55:00;;;;;;;39.90;18.48;;;;;;;20.87;100.00;101261.59;5095260;28;20044;-74
2023/06/29 08:57:27;;;;;;;31.85;18.23;;;;;;;21.26;100.00;101256.25;5092240;28;20541;-74
2023/06/29 08:59:53;;;;;;;30.25;16.75;;;;;;;21.23;100.00;101249.41;5088520;28;20047;-74
2023/06/29 09:02:19;;;;;;;34.95;16.77;;;;;;;21.69;100.00;101250.31;5093007;28;20063;-74
2023/06/29 09:04:44;;;;;;;36.78;18.00;;;;;;;21.35;100.00;101242.19;5094415;28;20089;-74
2023/06/29 09:07:10;;;;;;;36.45;19.10;;;;;;;21.32;100.00;101249.56;5094722;28;20571;-74
2023/06/29 09:09:35;;;;;;;35.83;16.58;;;;;;;21.26;100.00;101245.66;5092660;28;20036;-74
2023/06/29 09:12:01;;;;;;;35.75;19.17;;;;;;;21.01;100.00;101245.44;5093595;28;20035;-74
2023/06/29 09:14:28;;;;;;;33.25;17.08;;;;;;;21.26;100.00;101251.34;5094905;28;20028;-74
2023/06/29 09:17:01;;;;;;;32.75;17.85;;;;;;;21.08;100.00;101245.25;5087409;28;20560;-75
2023/06/29 09:19:29;;;;;;;34.33;17.48;;;;;;;21.20;100.00;101249.47;5091321;28;20503;-74
2023/06/29 09:21:55;;;;;;;36.33;19.67;;;;;;;21.28;100.00;101251.69;5092853;28;20484;-74
2023/06/29 09:24:21;;;;;;;30.83;16.83;;;;;;;21.58;100.00;101251.84;5091692;28;20032;-75
2023/06/29 09:26:53;;;;;;;28.50;16.05;;;;;;;21.58;100.00;101244.06;5094766;28;20040;-74
2023/06/29 09:29:19;;;;;;;29.55;15.40;;;;;;;21.65;100.00;101243.91;5099080;28;20035;-75
2023/06/29 09:31:58;;;;;;;27.40;14.63;;;;;;;21.94;100.00;101243.16;5094593;28;20043;-74
2023/06/29 09:34:26;;;;;;;29.15;16.33;;;;;;;22.08;100.00;101247.66;5088020;28;20487;-74
2023/06/29 09:36:52;;;;;;;33.30;16.55;;;;;;;21.89;100.00;101249.41;5091310;28;20480;-74
2023/06/29 09:39:18;;;;;;;30.35;15.77;;;;;;;22.10;100.00;101237.41;5092718;28;20023;-74
2023/06/29 09:42:05;;;;;;;28.48;14.95;;;;;;;22.48;95.98;101238.81;5096303;28;20028;-74
2023/06/29 09:44:30;;;;;;;29.33;15.60;;;;;;;22.24;99.83;101238.28;5097001;28;20031;-74
2023/06/29 09:47:06;;;;;;;34.60;17.02;;;;;;;22.34;100.00;101248.59;5092063;28;20039;-74
2023/06/29 09:49:43;;;;;;;31.33;16.25;;;;;;;22.43;100.00;101245.91;5099392;28;20357;-74
2023/06/29 09:52:08;;;;;;;24.60;13.65;;;;;;;22.28;100.00;101245.50;5094826;28;20063;-74
2023/06/29 09:54:34;;;;;;;29.23;14.75;;;;;;;22.37;100.00;101247.69;5092247;28;20502;-74
2023/06/29 09:57:02;;;;;;;32.25;16.88;;;;;;;22.46;98.63;101255.59;5096041;28;20072;-74
2023/06/29 09:59:33;;;;;;;28.20;14.85;;;;;;;22.45;97.28;101254.81;5100313;28;20333;-74
2023/06/29 10:01:59;;;;;;;29.20;15.63;;;;;;;22.37;97.10;101247.69;5087359;28;20024;-74
2023/06/29 10:04:25;;;;;;;26.60;14.98;;;;;;;22.59;97.57;101255.63;5095549;28;20024;-74
2023/06/29 10:06:59;;;;;;;29.77;16.10;;;;;;;22.56;98.14;101259.38;5093330;28;20031;-75
2023/06/29 10:09:26;;;;;;;29.00;15.90;;;;;;;22.48;99.13;101259.59;5096712;28;20519;-74
2023/06/29 10:11:53;;;;;;;33.72;18.00;;;;;;;22.34;99.57;101254.28;5090021;28;20452;-74
2023/06/29 10:14:20;;;;;;;34.90;15.63;;;;;;;22.52;98.89;101248.09;5095994;28;20032;-74
2023/06/29 10:16:50;;;;;;;32.55;17.83;;;;;;;22.47;99.72;101258.00;5074230;28;20062;-75
2023/06/29 10:19:23;;;;;;;31.60;16.98;;;;;;;22.70;97.80;101245.47;5101336;28;20114;-74
2023/06/29 10:21:53;;;;;;;39.58;21.00;;;;;;;22.82;98.55;101243.13;5094024;28;20024;-74
2023/06/29 10:24:25;;;;;;;30.02;16.27;;;;;;;23.30;96.47;101239.16;5101422;28;20023;-74
2023/06/29 10:26:52;;;;;;;33.47;17.83;;;;;;;23.43;97.59;101244.06;5080905;28;20066;-74
2023/06/29 10:29:17;;;;;;;30.35;16.80;;;;;;;23.34;94.46;101239.84;5097501;28;20031;-75
2023/06/29 10:31:49;;;;;;;35.60;18.85;;;;;;;23.26;94.64;101229.91;5093724;28;20032;-74
2023/06/29 10:34:15;;;;;;;31.75;17.80;;;;;;;23.41;94.43;101235.16;5098072;28;20032;-75
2023/06/29 10:36:49;;;;;;;36.05;18.38;;;;;;;23.36;93.69;101232.84;5098552;28;20027;-74
2023/06/29 10:39:40;;;;;;;38.13;18.35;;;;;;;23.50;94.88;101236.03;5091183;28;20035;-74
2023/06/29 10:42:37;;;;;;;34.25;19.80;;;;;;;23.62;92.47;101236.50;5096835;28;20085;-74
2023/06/29 10:45:22;;;;;;;36.33;19.25;;;;;;;23.52;93.10;101229.88;5098297;28;20020;-74
2023/06/29 10:48:02;;;;;;;39.90;21.90;;;;;;;23.81;94.19;101220.34;5104230;28;20061;-74
2023/06/29 10:50:29;;;;;;;35.45;19.85;;;;;;;23.42;93.54;101229.00;5087608;28;20032;-74
2023/06/29 10:52:59;;;;;;;35.40;18.13;;;;;;;23.52;94.36;101227.00;5080057;28;20027;-74
2023/06/29 10:55:37;;;;;;;35.22;18.92;;;;;;;23.58;94.18;101225.16;5094739;28;20024;-74
2023/06/29 10:58:24;;;;;;;39.72;19.75;;;;;;;23.64;94.78;101219.69;5093037;28;20458;-74
2023/06/29 11:00:54;;;;;;;37.03;20.27;;;;;;;23.81;94.26;101223.22;5104005;28;20031;-74